createdAt,value
2018-08-17T00:00:52.498Z,20.20
2018-08-17T00:03:21.190Z,20.60
2018-08-17T00:05:49.849Z,20.90
2018-08-17T00:08:18.514Z,24.57
2018-08-17T00:10:47.182Z,21.63
2018-08-17T00:13:15.844Z,22.33
2018-08-17T00:15:44.510Z,21.63
2018-08-17T00:18:13.185Z,21.20
2018-08-17T00:20:41.889Z,22.90
2018-08-17T00:23:10.550Z,22.80
2018-08-17T00:25:39.205Z,21.40
2018-08-17T00:28:07.866Z,21.83
2018-08-17T00:30:36.522Z,20.40
2018-08-17T00:33:05.262Z,21.30
2018-08-17T00:35:33.914Z,23.07
2018-08-17T00:38:02.577Z,21.23
2018-08-17T00:40:31.225Z,22.03
2018-08-17T00:42:59.894Z,22.90
2018-08-17T00:45:28.558Z,22.53
2018-08-17T00:47:57.274Z,24.53
2018-08-17T00:50:25.890Z,24.13
2018-08-17T00:52:54.555Z,23.10
2018-08-17T00:55:23.211Z,24.57
2018-08-17T00:57:51.878Z,23.00
2018-08-17T01:00:20.564Z,22.60
2018-08-17T01:02:49.222Z,22.33
2018-08-17T01:05:17.879Z,22.73
2018-08-17T01:07:46.555Z,22.57
2018-08-17T01:10:15.210Z,22.10
2018-08-17T01:12:43.886Z,23.90
2018-08-17T01:15:12.562Z,23.93
2018-08-17T01:17:41.543Z,23.43
2018-08-17T01:20:11.570Z,24.00
2018-08-17T01:22:40.521Z,21.80
2018-08-17T01:25:09.197Z,22.70
2018-08-17T01:27:37.872Z,22.73
2018-08-17T01:30:07.381Z,21.63
2018-08-17T01:32:36.049Z,21.20
2018-08-17T01:35:04.874Z,23.17
2018-08-17T01:37:33.570Z,25.30
2018-08-17T01:40:02.234Z,23.60
2018-08-17T01:42:30.901Z,22.63
2018-08-17T01:44:59.569Z,22.47
2018-08-17T01:47:28.254Z,22.57
2018-08-17T01:49:56.926Z,22.10
2018-08-17T01:52:25.593Z,22.60
2018-08-17T01:54:54.256Z,23.67
2018-08-17T01:57:22.923Z,23.43
2018-08-17T01:59:51.577Z,23.53
2018-08-17T02:02:20.262Z,21.83
2018-08-17T02:04:48.934Z,22.80
2018-08-17T02:07:17.586Z,22.60
2018-08-17T02:09:46.261Z,21.93
2018-08-17T02:12:15.080Z,22.40
2018-08-17T02:14:43.824Z,21.53
2018-08-17T02:17:12.402Z,21.47
2018-08-17T02:19:41.094Z,21.10
2018-08-17T02:22:09.758Z,21.93
2018-08-17T02:24:38.430Z,21.83
2018-08-17T02:27:07.438Z,24.97
2018-08-17T02:29:36.142Z,23.43
2018-08-17T02:32:04.802Z,24.13
2018-08-17T02:34:33.458Z,24.50
2018-08-17T02:37:02.114Z,26.97
2018-08-17T02:39:31.035Z,28.77
2018-08-17T02:41:59.698Z,29.77
2018-08-17T02:44:28.427Z,31.17
2018-08-17T02:46:57.087Z,30.53
2018-08-17T02:49:25.762Z,30.30
2018-08-17T02:51:54.446Z,31.80
2018-08-17T02:54:23.110Z,31.40
2018-08-17T02:56:51.772Z,31.30
2018-08-17T02:59:20.441Z,33.63
2018-08-17T03:01:49.077Z,31.30
2018-08-17T03:04:17.737Z,32.50
2018-08-17T03:06:46.389Z,32.70
2018-08-17T03:09:15.058Z,31.80
2018-08-17T03:11:43.710Z,32.40
2018-08-17T03:14:12.381Z,31.23
2018-08-17T03:16:41.038Z,33.90
2018-08-17T03:19:09.702Z,29.97
2018-08-17T03:21:38.360Z,32.20
2018-08-17T03:24:07.049Z,30.40
2018-08-17T03:26:35.698Z,31.90
2018-08-17T03:29:04.370Z,30.80
2018-08-17T03:31:33.050Z,31.27
2018-08-17T03:34:01.691Z,31.10
2018-08-17T03:36:30.377Z,29.77
2018-08-17T03:38:59.034Z,30.43
2018-08-17T03:41:27.697Z,31.00
2018-08-17T03:43:56.353Z,30.97
2018-08-17T03:46:25.020Z,27.80
2018-08-17T03:48:53.755Z,26.80
2018-08-17T03:51:22.423Z,24.77
2018-08-17T03:53:51.074Z,25.63
2018-08-17T03:56:19.737Z,24.80
2018-08-17T03:58:48.408Z,23.40
2018-08-17T04:01:17.077Z,22.90
2018-08-17T04:03:45.731Z,23.77
2018-08-17T04:06:14.395Z,21.80
2018-08-17T04:08:43.058Z,22.13
2018-08-17T04:11:11.722Z,22.50
2018-08-17T04:13:40.393Z,21.80
2018-08-17T04:16:09.081Z,23.00
2018-08-17T04:18:38.181Z,21.93
2018-08-17T04:21:06.846Z,21.37
2018-08-17T04:23:35.505Z,23.03
2018-08-17T04:26:04.183Z,19.90
2018-08-17T04:28:32.894Z,21.37
2018-08-17T04:31:01.528Z,20.50
2018-08-17T04:33:30.190Z,20.50
2018-08-17T04:35:58.863Z,19.77
2018-08-17T04:38:27.520Z,21.23
2018-08-17T04:40:56.182Z,19.00
2018-08-17T04:43:24.844Z,16.50
2018-08-17T04:45:53.529Z,16.43
2018-08-17T04:48:22.210Z,17.87
2018-08-17T04:50:51.058Z,17.13
2018-08-17T04:53:19.713Z,16.20
2018-08-17T04:55:48.374Z,13.90
2018-08-17T04:58:17.039Z,14.77
2018-08-17T05:00:45.701Z,17.00
2018-08-17T05:03:14.431Z,16.77
2018-08-17T05:05:43.045Z,15.33
2018-08-17T05:08:11.722Z,16.53
2018-08-17T05:10:40.401Z,15.07
2018-08-17T05:13:09.050Z,14.77
2018-08-17T05:15:37.928Z,15.07
2018-08-17T05:18:06.826Z,16.83
2018-08-17T05:20:35.493Z,15.97
2018-08-17T05:23:04.151Z,14.93
2018-08-17T05:25:32.873Z,14.27
2018-08-17T05:28:01.525Z,13.73
2018-08-17T05:30:30.189Z,13.87
2018-08-17T05:32:58.890Z,14.27
2018-08-17T05:35:27.614Z,12.93
2018-08-17T05:37:56.269Z,12.60
2018-08-17T05:40:24.917Z,16.33
2018-08-17T05:42:53.581Z,13.63
2018-08-17T05:45:22.233Z,12.47
2018-08-17T05:47:50.894Z,12.70
2018-08-17T05:50:19.557Z,12.37
2018-08-17T05:52:48.228Z,11.67
2018-08-17T05:55:16.881Z,11.40
2018-08-17T05:57:45.759Z,12.57
2018-08-17T06:00:14.444Z,15.23
2018-08-17T06:02:43.157Z,14.50
2018-08-17T06:05:12.421Z,11.63
2018-08-17T06:07:41.085Z,13.23
2018-08-17T06:10:10.136Z,13.40
2018-08-17T06:12:38.790Z,11.60
2018-08-17T06:15:07.898Z,11.17
2018-08-17T06:17:36.657Z,12.23
2018-08-17T06:20:06.362Z,12.03
2018-08-17T06:22:35.033Z,11.50
2018-08-17T06:25:08.137Z,12.70
2018-08-17T06:27:36.901Z,10.67
2018-08-17T06:30:07.474Z,11.13
2018-08-17T06:32:36.139Z,12.20
2018-08-17T06:35:04.918Z,11.50
2018-08-17T06:37:33.660Z,11.33
2018-08-17T06:40:02.314Z,12.33
2018-08-17T06:42:31.645Z,11.30
2018-08-17T06:45:00.314Z,11.77
2018-08-17T06:47:29.230Z,13.20
2018-08-17T06:49:57.894Z,11.70
2018-08-17T06:52:26.557Z,13.53
2018-08-17T06:54:55.217Z,14.27
2018-08-17T06:57:23.879Z,14.10
2018-08-17T06:59:52.541Z,16.43
2018-08-17T07:02:21.202Z,14.10
2018-08-17T07:04:49.893Z,16.90
2018-08-17T07:07:18.563Z,15.20
2018-08-17T07:09:47.217Z,16.77
2018-08-17T07:12:15.902Z,16.53
2018-08-17T07:14:44.554Z,15.90
2018-08-17T07:17:13.209Z,18.30
2018-08-17T07:19:41.870Z,15.93
2018-08-17T07:22:10.537Z,19.17
2018-08-17T07:24:39.190Z,19.10
2018-08-17T07:27:08.050Z,17.33
2018-08-17T07:29:36.714Z,17.90
2018-08-17T07:32:05.382Z,16.73
2018-08-17T07:34:34.046Z,17.03
2018-08-17T07:37:02.726Z,17.70
2018-08-17T07:39:31.374Z,17.63
2018-08-17T07:42:00.075Z,18.60
2018-08-17T07:44:28.690Z,20.97
2018-08-17T07:46:57.341Z,18.53
2018-08-17T07:49:26.012Z,20.47
2018-08-17T07:51:54.687Z,18.83
2018-08-17T07:54:23.338Z,19.60
2018-08-17T07:56:51.998Z,18.77
2018-08-17T07:59:20.706Z,16.97
2018-08-17T08:01:49.413Z,17.63
2018-08-17T08:04:18.074Z,17.60
2018-08-17T08:06:46.743Z,16.83
2018-08-17T08:09:15.409Z,17.17
2018-08-17T08:11:44.070Z,17.77
2018-08-17T08:14:19.342Z,18.33
2018-08-17T08:16:48.022Z,19.07
2018-08-17T08:19:16.650Z,17.70
2018-08-17T08:21:47.592Z,19.23
2018-08-17T08:24:16.809Z,17.77
2018-08-17T08:26:45.719Z,16.53
2018-08-17T08:29:14.413Z,17.00
2018-08-17T08:31:43.161Z,14.93
2018-08-17T08:34:12.127Z,15.93
2018-08-17T08:36:40.786Z,17.63
2018-08-17T08:39:11.565Z,14.97
2018-08-17T08:41:40.225Z,14.60
2018-08-17T08:44:08.917Z,15.33
2018-08-17T08:46:37.966Z,14.67
2018-08-17T08:49:06.815Z,14.87
2018-08-17T08:51:35.573Z,14.27
2018-08-17T08:54:04.237Z,14.67
2018-08-17T08:56:32.922Z,12.70
2018-08-17T08:59:01.594Z,12.20
2018-08-17T09:01:30.259Z,12.03
2018-08-17T09:03:58.922Z,12.60
2018-08-17T09:06:27.569Z,12.27
2018-08-17T09:08:56.270Z,14.20
2018-08-17T09:11:24.923Z,13.27
2018-08-17T09:13:53.727Z,13.53
2018-08-17T09:16:22.429Z,14.90
2018-08-17T09:18:51.197Z,15.83
2018-08-17T09:21:19.873Z,16.47
2018-08-17T09:23:48.529Z,15.10
2018-08-17T09:26:17.208Z,13.90
2018-08-17T09:28:45.866Z,11.90
2018-08-17T09:31:14.523Z,11.63
2018-08-17T09:33:43.173Z,11.10
2018-08-17T09:36:11.837Z,11.70
2018-08-17T09:38:40.530Z,11.47
2018-08-17T09:41:09.184Z,11.23
2018-08-17T09:43:37.837Z,12.00
2018-08-17T09:46:06.588Z,12.23
2018-08-17T09:48:35.234Z,10.93
2018-08-17T09:51:04.462Z,11.10
2018-08-17T09:53:33.170Z,11.60
2018-08-17T09:56:01.898Z,12.50
2018-08-17T09:58:30.566Z,11.90
2018-08-17T10:01:04.584Z,12.00
2018-08-17T10:03:38.793Z,12.93
2018-08-17T10:06:12.766Z,12.83
2018-08-17T10:08:46.673Z,12.47
2018-08-17T10:11:15.326Z,12.90
2018-08-17T10:13:43.985Z,12.50
2018-08-17T10:16:12.637Z,13.73
2018-08-17T10:18:43.104Z,11.87
2018-08-17T10:21:12.649Z,13.23
2018-08-17T10:23:41.269Z,13.13
2018-08-17T10:26:10.059Z,14.20
2018-08-17T10:28:38.742Z,14.93
2018-08-17T10:31:07.402Z,14.73
2018-08-17T10:33:36.069Z,16.67
2018-08-17T10:36:04.750Z,18.80
2018-08-17T10:38:33.410Z,18.73
2018-08-17T10:41:02.074Z,17.67
2018-08-17T10:43:30.732Z,19.17
2018-08-17T10:45:59.397Z,19.30
2018-08-17T10:48:28.063Z,17.77
2018-08-17T10:50:57.014Z,17.07
2018-08-17T10:53:26.017Z,18.37
2018-08-17T10:55:54.685Z,19.40
2018-08-17T10:58:23.441Z,19.60
2018-08-17T11:00:52.106Z,17.70
2018-08-17T11:03:20.770Z,15.87
2018-08-17T11:05:49.449Z,16.77
2018-08-17T11:08:18.106Z,16.00
2018-08-17T11:10:46.840Z,14.23
2018-08-17T11:13:15.507Z,14.43
2018-08-17T11:15:44.166Z,14.70
2018-08-17T11:18:12.817Z,14.80
2018-08-17T11:20:41.490Z,15.40
2018-08-17T11:23:10.159Z,15.53
2018-08-17T11:25:38.826Z,13.90
2018-08-17T11:28:07.497Z,13.37
2018-08-17T11:30:36.235Z,13.50
2018-08-17T11:33:04.894Z,11.60
2018-08-17T11:35:33.551Z,11.17
2018-08-17T11:38:02.205Z,11.47
2018-08-17T11:40:30.938Z,13.37
2018-08-17T11:42:59.591Z,11.57
2018-08-17T11:45:28.515Z,14.23
2018-08-17T11:47:58.147Z,13.30
2018-08-17T11:50:27.450Z,10.80
2018-08-17T11:52:58.876Z,11.20
2018-08-17T11:55:29.765Z,11.00
2018-08-17T11:57:58.425Z,11.03
2018-08-17T12:00:31.743Z,10.47
2018-08-17T12:03:00.393Z,10.30
2018-08-17T12:05:29.046Z,13.83
2018-08-17T12:07:57.694Z,9.60
2018-08-17T12:10:26.351Z,8.90
2018-08-17T12:12:57.998Z,9.40
2018-08-17T12:15:26.754Z,9.10
2018-08-17T12:17:55.390Z,10.90
2018-08-17T12:20:24.046Z,10.43
2018-08-17T12:22:52.702Z,14.17
2018-08-17T12:25:21.358Z,11.43
2018-08-17T12:27:58.130Z,13.27
2018-08-17T12:30:27.163Z,12.07
2018-08-17T12:32:55.821Z,13.77
2018-08-17T12:35:24.478Z,14.03
2018-08-17T12:37:58.466Z,12.67
2018-08-17T12:40:31.518Z,11.90
2018-08-17T12:43:00.161Z,11.80
2018-08-17T12:45:28.817Z,11.90
2018-08-17T12:47:57.457Z,12.37
2018-08-17T12:50:26.126Z,13.27
2018-08-17T12:52:54.782Z,12.10
2018-08-17T12:55:23.434Z,10.40
2018-08-17T12:57:52.137Z,9.60
2018-08-17T13:00:20.730Z,7.60
2018-08-17T13:02:49.377Z,6.50
2018-08-17T13:05:18.019Z,7.27
2018-08-17T13:07:46.674Z,7.10
2018-08-17T13:10:15.311Z,7.17
2018-08-17T13:12:49.822Z,7.30
2018-08-17T13:15:18.465Z,7.57
2018-08-17T13:17:47.148Z,13.03
2018-08-17T13:20:16.064Z,6.97
2018-08-17T13:22:44.709Z,6.00
2018-08-17T13:25:13.359Z,7.27
2018-08-17T13:27:42.018Z,5.50
2018-08-17T13:30:13.314Z,6.20
2018-08-17T13:32:42.401Z,6.33
2018-08-17T13:35:11.732Z,6.35
2018-08-17T13:37:40.661Z,7.17
2018-08-17T13:40:10.057Z,7.50
2018-08-17T13:42:38.739Z,6.58
2018-08-17T13:45:08.989Z,7.03
2018-08-17T13:47:37.637Z,7.78
2018-08-17T13:50:06.597Z,8.28
2018-08-17T13:52:35.278Z,9.93
2018-08-17T13:55:03.969Z,8.53
2018-08-17T13:57:32.629Z,6.53
2018-08-17T14:00:01.277Z,7.08
2018-08-17T14:02:29.926Z,5.97
2018-08-17T14:04:58.570Z,6.92
2018-08-17T14:07:27.222Z,5.75
2018-08-17T14:09:55.878Z,5.70
2018-08-17T14:12:24.505Z,5.85
2018-08-17T14:14:53.145Z,7.03
2018-08-17T14:17:21.793Z,5.90
2018-08-17T14:19:50.439Z,6.37
2018-08-17T14:22:19.152Z,5.25
2018-08-17T14:24:47.746Z,4.97
2018-08-17T14:27:16.402Z,7.05
2018-08-17T14:29:45.047Z,6.45
2018-08-17T14:32:13.698Z,7.20
2018-08-17T14:34:42.385Z,5.40
2018-08-17T14:37:11.042Z,5.95
2018-08-17T14:39:39.686Z,5.65
2018-08-17T14:42:08.402Z,5.55
2018-08-17T14:44:37.088Z,4.30
2018-08-17T14:47:05.858Z,5.67
2018-08-17T14:49:34.509Z,6.12
2018-08-17T14:52:03.175Z,5.45
2018-08-17T14:54:31.815Z,4.53
2018-08-17T14:57:00.465Z,4.65
2018-08-17T14:59:29.112Z,4.50
2018-08-17T15:01:57.782Z,7.08
2018-08-17T15:04:26.438Z,7.58
2018-08-17T15:06:55.101Z,6.83
2018-08-17T15:09:23.855Z,6.80
2018-08-17T15:11:52.499Z,7.80
2018-08-17T15:14:21.409Z,8.13
2018-08-17T15:16:50.058Z,10.82
2018-08-17T15:19:18.709Z,9.60
2018-08-17T15:21:47.409Z,9.50
2018-08-17T15:24:16.034Z,9.88
2018-08-17T15:26:44.680Z,11.28
2018-08-17T15:29:13.330Z,11.43
2018-08-17T15:31:41.974Z,12.20
2018-08-17T15:34:10.634Z,12.33
2018-08-17T15:36:39.430Z,12.63
2018-08-17T15:39:08.453Z,12.78
2018-08-17T15:41:43.733Z,12.88
2018-08-17T15:44:27.014Z,12.37
2018-08-17T15:46:56.998Z,11.15
2018-08-17T15:49:40.137Z,10.80
2018-08-17T15:52:08.913Z,12.40
2018-08-17T15:54:37.509Z,11.50
2018-08-17T15:57:06.173Z,12.23
2018-08-17T15:59:37.470Z,12.63
2018-08-17T16:02:08.414Z,10.57
2018-08-17T16:04:37.272Z,11.10
2018-08-17T16:07:06.138Z,14.00
2018-08-17T16:09:34.878Z,10.03
2018-08-17T16:12:03.571Z,9.53
2018-08-17T16:14:32.262Z,9.43
2018-08-17T16:17:00.923Z,10.00
2018-08-17T16:19:29.578Z,11.50
2018-08-17T16:21:58.277Z,9.83
2018-08-17T16:24:26.966Z,9.60
2018-08-17T16:26:55.657Z,7.43
2018-08-17T16:29:24.333Z,7.37
2018-08-17T16:31:52.995Z,12.73
2018-08-17T16:34:21.823Z,7.87
2018-08-17T16:36:50.506Z,10.00
2018-08-17T16:39:19.164Z,8.90
2018-08-17T16:41:47.857Z,5.70
2018-08-17T16:44:16.513Z,8.37
2018-08-17T16:46:45.149Z,4.93
2018-08-17T16:49:13.858Z,6.40
2018-08-17T16:51:42.582Z,7.97
2018-08-17T16:54:11.254Z,4.37
2018-08-17T16:56:39.928Z,6.07
2018-08-17T16:59:08.666Z,4.83
2018-08-17T17:01:37.246Z,6.67
2018-08-17T17:04:05.929Z,6.13
2018-08-17T17:06:34.751Z,7.33
2018-08-17T17:09:06.265Z,6.17
2018-08-17T17:11:35.102Z,9.50
2018-08-17T17:14:03.788Z,9.73
2018-08-17T17:16:38.384Z,7.57
2018-08-17T17:19:13.590Z,5.83
2018-08-17T17:21:43.713Z,5.00
2018-08-17T17:24:13.378Z,5.97
2018-08-17T17:26:42.886Z,5.07
2018-08-17T17:29:11.545Z,4.03
2018-08-17T17:31:40.653Z,7.40
2018-08-17T17:34:09.986Z,6.90
2018-08-17T17:36:39.201Z,7.07
2018-08-17T17:39:11.005Z,5.13
2018-08-17T17:41:39.919Z,4.10
2018-08-17T17:44:08.567Z,4.90
2018-08-17T17:46:37.585Z,7.57
2018-08-17T17:49:06.264Z,7.37
2018-08-17T17:51:34.929Z,5.13
2018-08-17T17:54:03.589Z,7.87
2018-08-17T17:56:32.259Z,6.63
2018-08-17T17:59:06.341Z,6.73
2018-08-17T18:01:34.982Z,3.80
2018-08-17T18:04:03.633Z,4.70
2018-08-17T18:06:32.290Z,5.53
2018-08-17T18:09:01.709Z,7.53
2018-08-17T18:11:30.370Z,6.37
2018-08-17T18:13:59.025Z,10.37
2018-08-17T18:16:27.661Z,5.47
2018-08-17T18:18:56.313Z,7.13
2018-08-17T18:21:29.122Z,6.83
2018-08-17T18:24:02.009Z,6.07
2018-08-17T18:26:30.674Z,7.20
2018-08-17T18:28:59.326Z,7.87
2018-08-17T18:31:27.974Z,6.83
2018-08-17T18:33:56.643Z,5.73
2018-08-17T18:36:25.314Z,6.00
2018-08-17T18:38:54.002Z,5.40
2018-08-17T18:41:22.657Z,11.53
2018-08-17T18:43:51.300Z,7.93
2018-08-17T18:46:19.954Z,10.17
2018-08-17T18:48:48.610Z,4.33
2018-08-17T18:51:17.281Z,5.77
2018-08-17T18:53:45.922Z,6.40
2018-08-17T18:56:14.613Z,5.33
2018-08-17T18:58:43.258Z,5.80
2018-08-17T19:01:11.897Z,4.23
2018-08-17T19:03:40.550Z,6.53
2018-08-17T19:06:09.491Z,5.50
2018-08-17T19:08:38.704Z,7.00
2018-08-17T19:11:07.353Z,4.77
2018-08-17T19:13:36.012Z,10.10
2018-08-17T19:16:04.674Z,8.30
2018-08-17T19:18:33.481Z,4.20
2018-08-17T19:21:04.227Z,5.50
2018-08-17T19:23:32.862Z,6.77
2018-08-17T19:26:01.526Z,6.97
2018-08-17T19:28:30.178Z,5.73
2018-08-17T19:30:58.842Z,7.70
2018-08-17T19:33:27.588Z,6.97
2018-08-17T19:35:56.193Z,5.33
2018-08-17T19:38:24.853Z,3.50
2018-08-17T19:40:53.489Z,9.20
2018-08-17T19:43:22.125Z,5.70
2018-08-17T19:45:50.855Z,5.00
2018-08-17T19:48:19.430Z,5.77
2018-08-17T19:50:48.106Z,5.07
2018-08-17T19:53:16.741Z,5.87
2018-08-17T19:55:45.397Z,8.50
2018-08-17T19:58:14.103Z,7.20
2018-08-17T20:00:42.795Z,5.67
2018-08-17T20:03:11.446Z,6.10
2018-08-17T20:05:40.101Z,5.83
2018-08-17T20:08:08.766Z,6.40
2018-08-17T20:10:37.421Z,8.00
2018-08-17T20:13:06.069Z,6.30
2018-08-17T20:15:34.734Z,7.20
2018-08-17T20:18:03.438Z,4.87
2018-08-17T20:20:32.086Z,7.27
2018-08-17T20:23:02.017Z,5.50
2018-08-17T20:25:30.696Z,6.20
2018-08-17T20:27:59.352Z,7.07
2018-08-17T20:30:28.089Z,6.60
2018-08-17T20:32:56.740Z,6.60
2018-08-17T20:35:25.407Z,5.20
2018-08-17T20:37:54.444Z,5.17
2018-08-17T20:40:23.094Z,9.03
2018-08-17T20:42:51.812Z,7.67
2018-08-17T20:45:24.033Z,7.53
2018-08-17T20:47:52.682Z,7.00
2018-08-17T20:50:21.358Z,7.00
2018-08-17T20:52:55.345Z,5.70
2018-08-17T20:55:23.998Z,6.13
2018-08-17T20:57:53.665Z,6.60
2018-08-17T21:00:23.552Z,8.40
2018-08-17T21:02:52.146Z,7.20
2018-08-17T21:05:20.896Z,6.60
2018-08-17T21:07:49.931Z,6.00
2018-08-17T21:10:18.664Z,6.33
2018-08-17T21:12:47.769Z,6.03
2018-08-17T21:15:16.805Z,4.63
2018-08-17T21:17:45.489Z,6.63
2018-08-17T21:20:14.168Z,7.13
2018-08-17T21:22:42.813Z,6.97
2018-08-17T21:25:11.481Z,8.30
2018-08-17T21:27:40.139Z,8.53
2018-08-17T21:30:09.325Z,8.37
2018-08-17T21:32:37.997Z,6.37
2018-08-17T21:35:07.329Z,6.83
2018-08-17T21:37:36.242Z,6.40
2018-08-17T21:40:06.862Z,6.23
2018-08-17T21:42:35.531Z,8.67
2018-08-17T21:45:04.467Z,6.67
2018-08-17T21:47:33.105Z,5.33
2018-08-17T21:50:04.650Z,5.87
2018-08-17T21:52:33.294Z,8.63
2018-08-17T21:55:01.938Z,4.43
2018-08-17T21:57:30.594Z,8.43
2018-08-17T21:59:59.231Z,5.67
2018-08-17T22:02:27.877Z,7.77
2018-08-17T22:04:56.522Z,10.30
2018-08-17T22:07:25.457Z,10.00
2018-08-17T22:09:54.549Z,7.77
2018-08-17T22:12:23.347Z,6.10
2018-08-17T22:14:51.942Z,4.80
2018-08-17T22:17:34.186Z,5.73
2018-08-17T22:20:02.979Z,8.93
2018-08-17T22:22:31.617Z,8.17
2018-08-17T22:25:02.397Z,4.90
2018-08-17T22:27:31.064Z,7.80
2018-08-17T22:30:00.172Z,5.83
2018-08-17T22:32:28.786Z,6.10
2018-08-17T22:34:57.418Z,7.00
2018-08-17T22:37:26.077Z,9.70
2018-08-17T22:39:54.718Z,6.70
2018-08-17T22:42:23.445Z,6.87
2018-08-17T22:44:52.050Z,6.40
2018-08-17T22:47:25.842Z,9.43
2018-08-17T22:49:56.658Z,5.97
2018-08-17T22:52:25.341Z,7.73
2018-08-17T22:54:56.963Z,6.20
2018-08-17T22:57:26.378Z,6.80
2018-08-17T23:00:12.114Z,11.70
2018-08-17T23:02:41.909Z,6.10
2018-08-17T23:05:13.458Z,8.37
2018-08-17T23:07:42.143Z,10.57
2018-08-17T23:10:14.121Z,8.60
2018-08-17T23:12:43.462Z,8.20
2018-08-17T23:15:12.678Z,11.43
2018-08-17T23:17:44.962Z,7.13
2018-08-17T23:20:13.610Z,9.70
2018-08-17T23:22:49.711Z,8.17
2018-08-17T23:25:18.475Z,6.83
2018-08-17T23:27:48.779Z,8.30
2018-08-17T23:30:17.461Z,5.83
2018-08-17T23:32:46.384Z,10.03
2018-08-17T23:35:15.033Z,8.40
2018-08-17T23:37:43.769Z,6.63
2018-08-17T23:40:12.490Z,7.23
2018-08-17T23:42:41.151Z,6.90
2018-08-17T23:45:11.498Z,6.57
2018-08-17T23:47:40.317Z,7.07
2018-08-17T23:50:10.277Z,8.40
2018-08-17T23:52:38.938Z,6.37
2018-08-17T23:55:09.775Z,7.27
2018-08-17T23:57:38.521Z,6.53
